createdAt,value
2022-12-12T00:02:44.048Z,23.85
2022-12-12T00:07:46.011Z,20.35
2022-12-12T00:12:48.193Z,18.67
2022-12-12T00:17:50.226Z,20.85
2022-12-12T00:22:52.084Z,19.38
2022-12-12T00:27:54.030Z,17.58
2022-12-12T00:32:55.871Z,20.52
2022-12-12T00:37:57.686Z,21.58
2022-12-12T00:42:59.432Z,18.65
2022-12-12T00:48:01.185Z,24.38
2022-12-12T00:53:03.217Z,19.58
2022-12-12T00:58:05.232Z,18.35
2022-12-12T01:03:07.441Z,22.13
2022-12-12T01:08:09.406Z,17.63
2022-12-12T01:13:11.331Z,22.02
2022-12-12T01:18:14.262Z,21.55
2022-12-12T01:23:16.161Z,21.20
2022-12-12T01:28:17.961Z,21.70
2022-12-12T01:33:19.897Z,24.27
2022-12-12T01:38:22.143Z,22.52
2022-12-12T01:43:25.571Z,19.35
2022-12-12T01:48:45.455Z,21.90
2022-12-12T01:53:50.185Z,24.05
2022-12-12T01:58:54.992Z,25.00
2022-12-12T02:03:59.264Z,20.65
2022-12-12T02:09:04.342Z,20.70
2022-12-12T02:14:06.225Z,21.10
2022-12-12T02:19:44.160Z,22.52
2022-12-12T02:25:12.564Z,22.50
2022-12-12T02:30:38.126Z,21.45
2022-12-12T02:36:00.146Z,23.48
2022-12-12T02:41:25.200Z,23.00
2022-12-12T02:46:41.573Z,24.23
2022-12-12T02:51:46.133Z,21.48
2022-12-12T02:56:50.669Z,25.83
2022-12-12T03:01:58.476Z,19.85
2022-12-12T03:07:35.924Z,21.38
2022-12-12T03:12:49.083Z,18.98
2022-12-12T03:18:05.718Z,24.92
2022-12-12T03:23:14.193Z,21.83
2022-12-12T03:28:31.070Z,22.38
2022-12-12T03:33:55.188Z,22.77
2022-12-12T03:39:02.045Z,24.38
2022-12-12T03:44:41.742Z,23.27
2022-12-12T03:49:50.341Z,34.63
2022-12-12T03:55:21.580Z,23.88
2022-12-12T04:00:23.538Z,23.75
2022-12-12T04:06:01.184Z,27.52
2022-12-12T04:11:39.308Z,24.23
2022-12-12T04:16:46.519Z,17.80
2022-12-12T04:22:18.138Z,22.48
2022-12-12T04:27:30.811Z,17.83
2022-12-12T04:32:37.731Z,19.17
2022-12-12T04:37:47.465Z,15.98
2022-12-12T04:43:13.897Z,18.95
2022-12-12T04:48:22.063Z,17.05
2022-12-12T04:53:33.404Z,22.65
2022-12-12T04:58:37.790Z,21.38
2022-12-12T05:03:49.382Z,21.33
2022-12-12T05:08:54.824Z,14.63
2022-12-12T05:13:56.661Z,19.20
2022-12-12T05:19:01.894Z,29.27
2022-12-12T05:24:03.986Z,14.82
2022-12-12T05:29:07.688Z,20.92
2022-12-12T05:34:10.329Z,18.95
2022-12-12T05:39:12.091Z,26.23
2022-12-12T05:44:13.981Z,18.65
2022-12-12T05:49:15.825Z,19.27
2022-12-12T05:54:17.642Z,18.02
2022-12-12T05:59:19.491Z,15.68
2022-12-12T06:04:21.336Z,14.98
2022-12-12T06:09:23.493Z,19.13
2022-12-12T06:14:26.411Z,19.63
2022-12-12T06:19:28.231Z,15.98
2022-12-12T06:24:30.225Z,21.35
2022-12-12T06:29:32.554Z,22.00
2022-12-12T06:34:34.461Z,17.75
2022-12-12T06:39:38.005Z,19.85
2022-12-12T06:44:39.809Z,20.40
2022-12-12T06:49:41.649Z,9.25
2022-12-12T06:54:43.485Z,17.38
2022-12-12T06:59:45.323Z,14.60
2022-12-12T07:04:47.175Z,19.63
2022-12-12T07:09:49.109Z,22.33
2022-12-12T07:14:51.029Z,10.48
2022-12-12T07:19:53.315Z,17.05
2022-12-12T07:24:55.405Z,16.02
2022-12-12T07:29:57.416Z,13.77
2022-12-12T07:34:59.271Z,16.67
2022-12-12T07:40:01.182Z,14.52
2022-12-12T07:45:03.063Z,15.80
2022-12-12T07:50:05.199Z,13.55
2022-12-12T07:55:07.587Z,13.88
2022-12-12T08:00:13.579Z,15.48
2022-12-12T08:05:16.528Z,17.40
2022-12-12T08:10:18.529Z,12.60
2022-12-12T08:15:20.781Z,18.67
2022-12-12T08:20:23.095Z,14.68
2022-12-12T08:25:24.927Z,8.00
2022-12-12T08:30:28.043Z,12.88
2022-12-12T08:35:31.785Z,14.18
2022-12-12T08:40:37.297Z,12.85
2022-12-12T08:45:39.475Z,16.60
2022-12-12T08:50:41.892Z,13.10
2022-12-12T08:55:43.657Z,9.20
2022-12-12T09:00:45.504Z,13.30
2022-12-12T09:05:47.642Z,19.23
2022-12-12T09:10:50.511Z,21.95
2022-12-12T09:15:52.987Z,14.85
2022-12-12T09:20:56.843Z,12.50
2022-12-12T09:25:59.134Z,14.82
2022-12-12T09:31:03.386Z,19.40
2022-12-12T09:36:08.145Z,13.48
2022-12-12T09:41:09.902Z,14.50
2022-12-12T09:46:32.646Z,15.93
2022-12-12T09:51:36.070Z,17.83
2022-12-12T09:56:57.462Z,15.15
2022-12-12T10:02:26.259Z,8.55
2022-12-12T10:07:51.672Z,9.68
2022-12-12T10:12:58.547Z,18.00
2022-12-12T10:18:05.358Z,15.23
2022-12-12T10:23:40.050Z,18.53
2022-12-12T10:28:42.075Z,17.33
2022-12-12T10:34:16.260Z,16.05
2022-12-12T10:39:32.992Z,14.32
2022-12-12T10:45:19.603Z,13.55
2022-12-12T10:50:37.670Z,14.10
2022-12-12T11:00:49.605Z,20.13
2022-12-12T11:05:51.486Z,16.70
2022-12-12T11:11:24.829Z,12.02
2022-12-12T11:16:40.788Z,16.55
2022-12-12T11:21:43.282Z,15.20
2022-12-12T11:27:04.466Z,15.35
2022-12-12T11:32:14.565Z,13.77
2022-12-12T11:37:19.196Z,15.02
2022-12-12T11:42:26.687Z,17.67
2022-12-12T11:47:41.017Z,15.38
2022-12-12T11:52:43.016Z,13.98
2022-12-12T11:57:47.687Z,14.10
2022-12-12T12:03:11.054Z,17.73
2022-12-12T12:08:28.938Z,16.50
2022-12-12T12:13:45.823Z,14.27
2022-12-12T12:19:16.275Z,14.48
2022-12-12T12:24:52.105Z,14.55
2022-12-12T12:30:13.705Z,15.63
2022-12-12T12:35:29.399Z,17.75
2022-12-12T12:40:43.321Z,12.07
2022-12-12T12:45:57.750Z,12.90
2022-12-12T12:51:04.725Z,13.25
2022-12-12T12:56:22.286Z,12.13
2022-12-12T13:01:42.485Z,13.50
2022-12-12T13:07:25.679Z,15.75
2022-12-12T13:12:44.501Z,17.15
2022-12-12T13:17:48.995Z,11.98
2022-12-12T13:23:21.777Z,12.95
2022-12-12T13:28:35.957Z,15.48
2022-12-12T13:33:44.557Z,12.13
2022-12-12T13:38:53.583Z,13.45
2022-12-12T13:43:57.950Z,21.98
2022-12-12T13:49:16.887Z,17.60
2022-12-12T13:54:38.598Z,14.75
2022-12-12T13:59:58.372Z,16.23
2022-12-12T14:05:35.624Z,16.90
2022-12-12T14:10:43.651Z,11.30
2022-12-12T14:15:48.358Z,16.50
2022-12-12T14:20:56.266Z,15.07
2022-12-12T14:26:00.006Z,11.25
2022-12-12T14:31:17.201Z,13.90
2022-12-12T14:36:37.663Z,13.43
2022-12-12T14:41:42.998Z,13.75
2022-12-12T14:46:44.781Z,20.45
2022-12-12T14:51:50.677Z,19.20
2022-12-12T14:56:59.178Z,12.35
2022-12-12T15:02:15.984Z,13.20
2022-12-12T15:07:28.083Z,12.13
2022-12-12T15:12:34.969Z,12.82
2022-12-12T15:17:46.104Z,14.67
2022-12-12T15:22:57.392Z,15.68
2022-12-12T15:27:59.564Z,13.68
2022-12-12T15:33:03.413Z,17.35
2022-12-12T15:38:13.157Z,17.95
2022-12-12T15:43:24.863Z,17.52
2022-12-12T15:48:27.605Z,19.15
2022-12-12T15:53:35.579Z,16.42
2022-12-12T15:58:43.686Z,26.20
2022-12-12T16:04:01.752Z,19.52
2022-12-12T16:14:42.450Z,23.80
2022-12-12T16:19:57.703Z,21.95
2022-12-12T16:25:23.394Z,18.73
2022-12-12T16:35:28.690Z,17.70
2022-12-12T16:40:30.717Z,25.40
2022-12-12T16:45:32.535Z,19.10
2022-12-12T16:50:35.426Z,19.58
2022-12-12T16:55:39.686Z,16.50
2022-12-12T17:00:41.595Z,24.48
2022-12-12T17:05:45.022Z,21.05
2022-12-12T17:10:48.488Z,19.52
2022-12-12T17:15:51.906Z,20.42
2022-12-12T17:20:53.806Z,18.75
2022-12-12T17:26:02.449Z,20.73
2022-12-12T17:31:09.667Z,21.60
2022-12-12T17:36:13.189Z,21.35
2022-12-12T17:41:15.043Z,16.38
2022-12-12T17:46:17.856Z,22.38
2022-12-12T17:51:23.972Z,17.90
2022-12-12T17:56:26.796Z,21.33
2022-12-12T18:01:33.621Z,23.20
2022-12-12T18:06:36.135Z,21.97
2022-12-12T18:11:38.970Z,21.55
2022-12-12T18:16:44.973Z,21.77
2022-12-12T18:22:02.843Z,22.08
2022-12-12T18:27:04.803Z,26.88
2022-12-12T18:32:06.788Z,27.75
2022-12-12T18:37:08.847Z,21.75
2022-12-12T18:42:12.013Z,24.95
2022-12-12T18:47:13.930Z,21.85
2022-12-12T18:52:16.112Z,22.00
2022-12-12T18:57:18.403Z,22.30
2022-12-12T19:02:20.369Z,29.20
2022-12-12T19:07:22.370Z,23.60
2022-12-12T19:12:24.357Z,23.80
2022-12-12T19:17:27.020Z,28.60
2022-12-12T19:22:44.946Z,28.85
2022-12-12T19:27:48.641Z,25.80
2022-12-12T19:32:50.535Z,27.40
2022-12-12T19:37:52.659Z,24.30
2022-12-12T19:42:54.525Z,19.55
2022-12-12T19:47:56.574Z,25.73
2022-12-12T19:53:01.457Z,21.25
2022-12-12T19:58:04.698Z,21.15
2022-12-12T20:03:06.705Z,20.10
2022-12-12T20:08:08.686Z,14.20
2022-12-12T20:13:11.696Z,20.33
2022-12-12T20:18:16.330Z,17.05
2022-12-12T20:23:18.651Z,16.48
2022-12-12T20:28:20.552Z,17.95
2022-12-12T20:33:22.419Z,22.25
2022-12-12T20:38:25.310Z,15.75
2022-12-12T20:43:28.602Z,15.30
2022-12-12T20:48:30.434Z,14.98
2022-12-12T20:53:36.388Z,16.58
2022-12-12T20:58:39.674Z,16.08
2022-12-12T21:03:43.115Z,12.20
2022-12-12T21:08:46.238Z,12.82
2022-12-12T21:13:50.815Z,18.05
2022-12-12T21:18:55.047Z,18.23
2022-12-12T21:23:58.023Z,13.52
2022-12-12T21:29:02.008Z,17.13
2022-12-12T21:34:06.147Z,12.93
2022-12-12T21:39:08.646Z,16.13
2022-12-12T21:44:10.706Z,19.98
2022-12-12T21:49:28.260Z,17.90
2022-12-12T21:54:30.763Z,16.60
2022-12-12T21:59:32.673Z,16.83
2022-12-12T22:04:34.515Z,16.60
2022-12-12T22:09:36.378Z,16.67
2022-12-12T22:14:38.239Z,16.85
2022-12-12T22:19:40.048Z,15.88
2022-12-12T22:24:41.837Z,14.23
2022-12-12T22:29:43.689Z,13.55
2022-12-12T22:34:45.545Z,14.55
2022-12-12T22:39:47.443Z,15.02
2022-12-12T22:44:49.205Z,13.85
2022-12-12T22:49:52.664Z,11.40
2022-12-12T22:54:54.933Z,12.35
2022-12-12T22:59:56.920Z,16.60
2022-12-12T23:04:58.854Z,15.00
2022-12-12T23:10:02.446Z,15.38
2022-12-12T23:15:05.031Z,17.73
2022-12-12T23:20:07.998Z,13.75
2022-12-12T23:25:09.746Z,15.02
2022-12-12T23:30:11.875Z,9.98
2022-12-12T23:35:14.192Z,14.30
2022-12-12T23:40:16.363Z,14.75
2022-12-12T23:45:18.366Z,12.93
2022-12-12T23:50:20.226Z,14.10
2022-12-12T23:55:22.107Z,20.60
